Time;durP1;ratioP1;P1;durP2;ratioP2;P2;SDS_P1;SDS_P2;PMS_P1;PMS_P2;Temp;Humidity;BMP_temperature;BMP_pressure;BME280_temperature;BME280_humidity;BME280_pressure;Samples;Min_cycle;Max_cycle;Signal;HPM_P1;HPM_P2
2022/03/17 00:01:41;;;;;;;24.60;14.93;;;;;;;13.29;51.69;101827.63;5155798;28;20464;-53
2022/03/17 00:04:14;;;;;;;26.98;15.63;;;;;;;13.21;51.84;101820.31;5160869;28;20439;-57
2022/03/17 00:06:48;;;;;;;26.20;15.35;;;;;;;13.29;51.91;101828.44;5165463;28;21211;-52
2022/03/17 00:09:21;;;;;;;21.65;15.25;;;;;;;13.30;51.98;101829.28;5164546;28;20412;-56
2022/03/17 00:11:53;;;;;;;21.52;16.23;;;;;;;13.31;51.79;101826.47;5166394;28;20491;-51
2022/03/17 00:14:26;;;;;;;26.90;17.60;;;;;;;13.33;51.92;101819.22;5164395;28;20507;-55
2022/03/17 00:16:58;;;;;;;20.43;15.60;;;;;;;13.34;51.89;101826.19;5159711;28;20981;-54
2022/03/17 00:19:31;;;;;;;24.17;17.10;;;;;;;13.11;52.14;101795.66;5165906;28;20416;-54
2022/03/17 00:22:08;;;;;;;27.95;17.50;;;;;;;13.20;52.26;101810.69;5166828;28;20484;-54
2022/03/17 00:24:41;;;;;;;25.00;16.10;;;;;;;13.34;52.06;101820.03;5164082;28;20413;-54
2022/03/17 00:27:14;;;;;;;22.50;14.70;;;;;;;13.28;52.32;101816.13;5156092;28;20435;-55
2022/03/17 00:29:47;;;;;;;26.88;16.65;;;;;;;13.02;52.29;101768.16;5167213;28;20417;-53
2022/03/17 00:32:20;;;;;;;22.60;17.10;;;;;;;13.30;52.36;101819.50;5163583;28;20416;-56
2022/03/17 00:37:46;;;;;;;23.02;16.65;;;;;;;13.24;52.52;101822.69;5163095;28;20930;-58
2022/03/17 00:40:19;;;;;;;23.98;16.45;;;;;;;13.27;52.55;101850.78;5166045;28;20425;-54
2022/03/17 00:42:51;;;;;;;24.52;16.75;;;;;;;13.21;52.64;101830.09;5165166;28;20445;-57
2022/03/17 00:45:24;;;;;;;22.02;16.25;;;;;;;13.02;52.84;101810.59;5163278;28;20775;-56
2022/03/17 00:47:57;;;;;;;23.88;17.15;;;;;;;13.14;52.91;101840.44;5176183;28;20494;-56
2022/03/17 00:50:29;;;;;;;26.90;17.23;;;;;;;13.10;53.01;101839.03;5164379;28;20413;-52
2022/03/17 00:53:06;;;;;;;25.15;17.83;;;;;;;13.10;53.02;101833.72;5165017;28;20476;-52
2022/03/17 00:55:38;;;;;;;25.95;19.58;;;;;;;13.09;53.18;101835.56;5167305;28;20448;-56
2022/03/17 00:58:11;;;;;;;28.17;18.23;;;;;;;13.04;53.15;101824.56;5165619;28;20428;-56
2022/03/17 01:00:44;;;;;;;24.58;18.13;;;;;;;12.82;53.49;101815.09;5162533;28;20936;-58
2022/03/17 01:03:16;;;;;;;27.65;19.45;;;;;;;12.96;53.46;101826.22;5166211;28;20479;-53
2022/03/17 01:05:49;;;;;;;29.33;20.67;;;;;;;12.99;53.63;101825.94;5164621;28;20420;-55
2022/03/17 01:08:23;;;;;;;32.05;19.58;;;;;;;12.97;53.38;101842.00;5162373;28;20805;-53
2022/03/17 01:10:55;;;;;;;28.17;19.95;;;;;;;12.93;53.60;101828.19;5161802;28;20413;-53
2022/03/17 01:13:28;;;;;;;28.98;19.45;;;;;;;12.93;53.85;101833.47;5162484;28;20423;-53
2022/03/17 01:16:00;;;;;;;29.38;20.42;;;;;;;12.87;54.03;101834.03;5162035;28;20421;-54
2022/03/17 01:18:32;;;;;;;28.80;20.67;;;;;;;12.80;54.12;101811.72;5165569;28;20889;-54
2022/03/17 01:21:06;;;;;;;29.70;20.92;;;;;;;12.88;54.20;101825.13;5164650;28;21007;-55
2022/03/17 01:23:40;;;;;;;22.00;16.77;;;;;;;12.88;54.37;101825.13;5166016;28;20432;-54
2022/03/17 01:26:13;;;;;;;27.60;18.90;;;;;;;12.75;54.48;101807.81;5166517;28;20527;-56
2022/03/17 01:28:45;;;;;;;29.08;19.95;;;;;;;12.86;54.56;101837.69;5164800;28;20427;-51
2022/03/17 01:31:18;;;;;;;29.65;20.42;;;;;;;12.70;54.63;101795.00;5163205;28;20466;-50
2022/03/17 01:33:51;;;;;;;29.67;20.90;;;;;;;12.85;54.71;101830.72;5154805;28;20420;-53
2022/03/17 01:36:23;;;;;;;29.08;21.20;;;;;;;12.85;54.76;101830.72;5163226;28;20416;-51
2022/03/17 01:38:57;;;;;;;29.63;21.38;;;;;;;12.85;54.85;101837.81;5167221;28;20405;-51
2022/03/17 01:41:30;;;;;;;33.05;22.40;;;;;;;12.77;54.97;101825.28;5158565;28;20417;-56
2022/03/17 01:44:02;;;;;;;33.45;23.40;;;;;;;12.81;55.11;101834.59;5166575;28;20405;-52
2022/03/17 01:47:26;;;;;;;39.22;23.00;;;;;;;12.70;55.08;101826.81;5169798;28;20828;-55
2022/03/17 01:49:28;;;;;;;36.65;23.40;;;;;;;12.78;55.43;101834.06;5143583;28;20486;-53
2022/03/17 01:52:00;;;;;;;33.75;22.90;;;;;;;12.77;55.42;101843.81;5166151;28;20504;-57
2022/03/17 01:54:35;;;;;;;33.10;23.48;;;;;;;12.70;55.74;101845.38;5166416;28;20428;-55
2022/03/17 01:57:10;;;;;;;33.22;24.15;;;;;;;12.65;55.87;101842.28;5164583;28;21307;-54
2022/03/17 01:59:43;;;;;;;35.80;24.00;;;;;;;12.53;56.01;101836.28;5169540;28;20413;-52
2022/03/17 02:02:15;;;;;;;35.10;24.47;;;;;;;12.60;56.15;101852.44;5168722;28;20599;-57
2022/03/17 02:04:48;;;;;;;32.25;23.20;;;;;;;12.53;56.32;101851.34;5166850;28;20453;-55
2022/03/17 02:07:21;;;;;;;40.33;26.10;;;;;;;12.50;56.47;101851.59;5167919;28;20504;-51
2022/03/17 02:09:55;;;;;;;45.20;27.77;;;;;;;12.49;56.40;101855.25;5166881;28;20401;-50
2022/03/17 02:15:18;;;;;;;39.65;28.23;;;;;;;12.40;56.77;101857.72;5160502;28;23257;-51
2022/03/17 02:17:50;;;;;;;46.17;30.48;;;;;;;12.47;56.83;101879.22;5167541;28;20923;-50
2022/03/17 02:20:24;;;;;;;39.20;27.52;;;;;;;12.42;57.05;101906.13;5166859;28;20424;-53
2022/03/17 02:25:52;;;;;;;35.40;22.50;;;;;;;12.30;57.23;101899.25;5163496;28;20782;-56
2022/03/17 02:28:25;;;;;;;25.15;18.00;;;;;;;12.25;57.53;101912.06;5165304;28;20401;-52
2022/03/17 02:30:59;;;;;;;24.90;16.58;;;;;;;12.21;57.72;101924.75;5165734;28;20480;-52
2022/03/17 02:33:31;;;;;;;20.02;13.63;;;;;;;12.10;57.93;101926.63;5144738;28;20901;-53
2022/03/17 02:36:08;;;;;;;18.00;12.15;;;;;;;11.98;57.98;101931.19;5165044;28;20460;-53
2022/03/17 02:38:43;;;;;;;18.73;13.47;;;;;;;11.88;58.12;101923.19;5166002;28;20432;-52
2022/03/17 02:41:23;;;;;;;16.50;10.63;;;;;;;11.89;58.11;101932.84;5174806;28;20906;-50
2022/03/17 02:43:55;;;;;;;20.73;11.93;;;;;;;11.85;57.85;101939.34;5166518;28;20417;-54
2022/03/17 02:46:28;;;;;;;24.07;12.50;;;;;;;11.84;58.10;101945.59;5167839;28;20408;-53
2022/03/17 02:49:01;;;;;;;22.35;10.25;;;;;;;11.74;58.05;101950.00;5162019;28;20420;-53
2022/03/17 02:51:33;;;;;;;15.85;8.75;;;;;;;11.67;58.11;101960.22;5163128;28;20523;-57
2022/03/17 02:54:07;;;;;;;13.52;7.45;;;;;;;11.59;58.34;101961.88;5167748;28;20428;-55
2022/03/17 02:56:40;;;;;;;15.65;8.10;;;;;;;11.50;58.31;101974.06;5163918;28;20412;-55
2022/03/17 02:59:12;;;;;;;14.38;7.45;;;;;;;11.42;58.39;101972.03;5166196;28;20580;-50
2022/03/17 03:01:45;;;;;;;12.43;7.60;;;;;;;11.32;58.54;101992.28;5167090;28;20982;-50
2022/03/17 03:04:17;;;;;;;16.10;7.18;;;;;;;11.25;58.48;101996.41;5169473;28;20488;-53
2022/03/17 03:06:50;;;;;;;15.70;7.10;;;;;;;11.27;58.41;101994.44;5165453;28;20548;-53
2022/03/17 03:09:23;;;;;;;14.65;7.40;;;;;;;11.22;58.51;102008.06;5159560;28;20769;-52
2022/03/17 03:11:58;;;;;;;17.67;6.78;;;;;;;11.22;58.54;102017.81;5167354;28;20423;-53
2022/03/17 03:14:31;;;;;;;11.80;6.28;;;;;;;11.20;58.62;102035.59;5166921;28;20753;-53
2022/03/17 03:17:04;;;;;;;15.07;6.93;;;;;;;11.13;58.65;102029.13;5166329;28;20434;-53
2022/03/17 03:19:36;;;;;;;14.73;7.03;;;;;;;11.08;58.50;102042.72;5168103;28;20425;-51
2022/03/17 03:22:09;;;;;;;17.50;7.80;;;;;;;11.04;58.62;102036.00;5167147;28;20428;-53
2022/03/17 03:24:43;;;;;;;16.35;7.65;;;;;;;11.02;58.49;102037.91;5166326;28;20773;-52
2022/03/17 03:27:15;;;;;;;18.85;7.95;;;;;;;10.95;58.56;102058.72;5166397;28;20582;-53
2022/03/17 03:29:48;;;;;;;17.92;8.00;;;;;;;10.95;58.66;102053.44;5167226;28;22178;-54
2022/03/17 03:32:20;;;;;;;15.23;8.05;;;;;;;10.87;58.77;102052.34;5166654;28;20400;-57
2022/03/17 03:34:53;;;;;;;22.50;9.85;;;;;;;10.89;58.76;102068.94;5167742;28;20877;-51
2022/03/17 03:37:25;;;;;;;22.15;8.50;;;;;;;10.87;58.84;102082.28;5162916;28;20499;-58
2022/03/17 03:40:00;;;;;;;19.75;10.02;;;;;;;10.87;58.71;102082.28;5167040;28;20439;-54
2022/03/17 03:42:32;;;;;;;23.83;10.95;;;;;;;10.89;58.76;102084.78;5164803;28;20496;-52
2022/03/17 03:45:05;;;;;;;24.73;10.50;;;;;;;10.27;58.68;101993.66;5165590;28;20453;-56
2022/03/17 03:47:38;;;;;;;20.23;9.65;;;;;;;10.82;58.61;102100.31;5162708;28;20933;-53
2022/03/17 03:50:11;;;;;;;28.60;11.35;;;;;;;10.86;59.00;102109.66;5166357;28;20468;-55
2022/03/17 03:52:44;;;;;;;23.17;9.60;;;;;;;10.87;58.85;102121.94;5166518;28;20433;-51
2022/03/17 03:55:18;;;;;;;18.95;8.65;;;;;;;10.83;58.81;102117.81;5163432;28;20456;-57
2022/03/17 03:57:51;;;;;;;17.57;8.17;;;;;;;10.83;58.80;102125.75;5167730;28;20911;-51
2022/03/17 04:03:09;;;;;;;29.25;7.63;;;;;;;10.75;59.05;102138.75;5179677;28;20411;-55
2022/03/17 04:05:42;;;;;;;20.13;6.47;;;;;;;10.72;59.05;102152.19;5184530;28;20802;-53
2022/03/17 04:08:14;;;;;;;28.30;7.57;;;;;;;10.68;59.27;102156.00;5183931;28;20522;-54
2022/03/17 04:10:48;;;;;;;26.10;7.68;;;;;;;10.63;58.94;102163.47;5184221;28;20433;-53
2022/03/17 04:13:20;;;;;;;22.55;6.72;;;;;;;10.58;59.25;102171.72;5183101;28;21020;-52
2022/03/17 04:15:53;;;;;;;23.50;6.55;;;;;;;10.60;59.13;102175.94;5187475;28;20460;-51
2022/03/17 04:18:25;;;;;;;23.85;5.20;;;;;;;10.50;59.33;102171.47;5184419;28;20771;-54
2022/03/17 04:20:58;;;;;;;19.30;5.72;;;;;;;10.52;59.31;102195.97;5185231;28;20411;-53
2022/03/17 04:23:30;;;;;;;22.02;6.55;;;;;;;10.51;59.42;102200.41;5181018;28;20507;-53
2022/03/17 04:26:04;;;;;;;21.38;5.05;;;;;;;10.48;59.19;102203.28;5184805;28;20539;-54
2022/03/17 04:28:36;;;;;;;27.98;6.32;;;;;;;10.48;59.31;102205.94;5182433;28;20973;-55
2022/03/17 04:31:09;;;;;;;16.83;5.03;;;;;;;10.48;59.38;102220.94;5184297;28;20415;-54
2022/03/17 04:33:41;;;;;;;24.33;5.65;;;;;;;10.43;59.33;102226.56;5185576;28;20419;-51
2022/03/17 04:36:14;;;;;;;17.13;5.78;;;;;;;10.37;59.29;102227.88;5186348;28;20764;-50
2022/03/17 04:38:47;;;;;;;21.40;4.80;;;;;;;10.33;59.16;102228.22;5166998;28;20993;-55
2022/03/17 04:41:21;;;;;;;19.75;5.15;;;;;;;10.34;59.26;102240.44;5183673;28;20465;-56
2022/03/17 04:43:53;;;;;;;21.27;4.80;;;;;;;10.36;59.29;102241.19;5184527;28;20825;-56
2022/03/17 04:46:26;;;;;;;20.08;4.65;;;;;;;10.35;59.21;102255.34;5185679;28;20828;-55
2022/03/17 04:48:59;;;;;;;20.40;5.18;;;;;;;10.36;59.16;102267.59;5183955;28;20502;-51
2022/03/17 04:51:32;;;;;;;18.58;5.20;;;;;;;10.32;59.23;102268.78;5183472;28;20422;-53
2022/03/17 04:54:04;;;;;;;17.63;4.73;;;;;;;10.33;59.36;102278.38;5184882;28;20496;-53
2022/03/17 04:56:38;;;;;;;16.05;5.15;;;;;;;10.31;59.22;102290.84;5184768;28;20478;-53
2022/03/17 04:59:11;;;;;;;20.23;5.17;;;;;;;10.30;59.33;102299.72;5182599;28;20498;-50
2022/03/17 05:01:43;;;;;;;22.60;6.27;;;;;;;10.29;59.29;102303.34;5185384;28;20441;-53
2022/03/17 05:04:15;;;;;;;19.23;5.35;;;;;;;10.28;59.26;102304.28;5185011;28;20489;-52
2022/03/17 05:06:48;;;;;;;21.92;5.03;;;;;;;10.27;59.33;102329.00;5185208;28;20506;-55
2022/03/17 05:09:21;;;;;;;27.75;5.95;;;;;;;10.21;59.16;102321.50;5184689;28;20399;-50
2022/03/17 05:11:55;;;;;;;18.73;5.18;;;;;;;10.08;59.25;102327.66;5184206;28;20731;-50
2022/03/17 05:14:27;;;;;;;31.63;5.28;;;;;;;10.10;59.39;102346.88;5184053;28;20960;-52
2022/03/17 05:17:00;;;;;;;12.60;3.95;;;;;;;10.09;59.23;102350.44;5180077;28;20466;-51
2022/03/17 05:19:33;;;;;;;15.30;4.15;;;;;;;10.04;59.35;102357.88;5185731;28;20848;-52
2022/03/17 05:22:06;;;;;;;19.73;4.80;;;;;;;9.97;59.44;102351.31;5188541;28;20414;-52
2022/03/17 05:24:38;;;;;;;24.83;5.37;;;;;;;10.03;59.46;102364.09;5189602;28;20493;-52
2022/03/17 05:27:12;;;;;;;18.23;4.00;;;;;;;10.02;59.38;102370.31;5190815;28;20407;-51
2022/03/17 05:29:44;;;;;;;20.08;4.40;;;;;;;9.98;59.36;102379.41;5186229;28;20431;-62
2022/03/17 05:32:17;;;;;;;19.80;4.10;;;;;;;9.94;59.31;102380.59;5189616;28;20415;-56
2022/03/17 05:34:50;;;;;;;20.35;4.35;;;;;;;9.98;59.35;102397.91;5189611;28;20932;-52
2022/03/17 05:37:23;;;;;;;19.95;4.65;;;;;;;9.99;59.28;102412.78;5188834;28;20410;-57
2022/03/17 05:39:56;;;;;;;29.27;5.97;;;;;;;9.91;59.40;102426.50;5187076;28;20810;-56
2022/03/17 05:42:30;;;;;;;27.80;4.97;;;;;;;9.93;59.26;102434.31;5187433;28;20510;-49
2022/03/17 05:45:02;;;;;;;16.90;4.97;;;;;;;9.80;59.36;102429.03;5186125;28;20954;-52
2022/03/17 05:47:36;;;;;;;20.10;4.95;;;;;;;9.87;59.28;102450.56;5189260;28;20423;-56
2022/03/17 05:50:12;;;;;;;22.53;4.70;;;;;;;9.90;59.44;102455.63;5187294;28;20527;-53
2022/03/17 05:52:46;;;;;;;18.00;4.28;;;;;;;9.66;59.35;102426.50;5189139;28;20423;-52
2022/03/17 05:55:23;;;;;;;18.98;4.85;;;;;;;9.87;59.35;102472.53;5189559;28;20917;-53
2022/03/17 05:57:58;;;;;;;33.55;5.90;;;;;;;9.87;59.44;102482.22;5186127;28;20493;-54
2022/03/17 06:00:32;;;;;;;18.33;4.40;;;;;;;9.81;59.12;102469.47;5184732;28;20414;-56
2022/03/17 06:03:05;;;;;;;18.42;4.72;;;;;;;9.86;59.36;102491.13;5188623;28;20473;-49
2022/03/17 06:05:37;;;;;;;23.17;5.07;;;;;;;9.86;59.38;102496.38;5187125;28;20544;-54
2022/03/17 06:08:10;;;;;;;23.27;4.53;;;;;;;9.84;59.12;102499.13;5189220;28;20430;-55
2022/03/17 06:10:42;;;;;;;17.88;4.55;;;;;;;9.82;59.30;102513.38;5185909;28;20498;-55
2022/03/17 06:13:16;;;;;;;18.65;4.78;;;;;;;9.77;58.93;102507.56;5187421;28;20522;-52
2022/03/17 06:15:48;;;;;;;17.88;4.45;;;;;;;9.84;59.14;102540.50;5184700;28;20502;-59
2022/03/17 06:18:21;;;;;;;26.48;5.22;;;;;;;9.69;59.06;102515.97;5185961;28;20426;-53
2022/03/17 06:20:53;;;;;;;20.95;5.15;;;;;;;9.83;59.03;102538.81;5188422;28;20419;-58
2022/03/17 06:23:25;;;;;;;18.92;4.05;;;;;;;9.83;59.12;102555.50;5194084;28;20534;-54
2022/03/17 06:25:59;;;;;;;19.33;4.72;;;;;;;9.82;59.06;102550.34;5212173;28;20886;-55
2022/03/17 06:28:33;;;;;;;17.30;3.80;;;;;;;9.55;59.16;102516.91;5190323;28;20506;-54
2022/03/17 06:31:05;;;;;;;19.60;4.03;;;;;;;9.82;59.10;102563.53;5183906;28;20494;-55
2022/03/17 06:33:38;;;;;;;16.27;3.80;;;;;;;9.81;59.03;102572.38;5191127;28;20525;-51
2022/03/17 06:36:10;;;;;;;16.77;4.03;;;;;;;9.83;59.03;102573.97;5190745;28;20454;-50
2022/03/17 06:38:42;;;;;;;17.10;4.50;;;;;;;9.86;59.04;102581.69;5186373;28;21151;-49
2022/03/17 06:41:15;;;;;;;12.77;3.60;;;;;;;9.85;58.72;102584.44;5187542;28;20427;-50
2022/03/17 06:43:49;;;;;;;13.93;3.85;;;;;;;9.87;58.83;102601.00;5187096;28;20423;-54
2022/03/17 06:46:21;;;;;;;20.25;4.78;;;;;;;9.80;58.84;102592.63;5186720;28;20403;-54
2022/03/17 06:48:54;;;;;;;17.95;4.28;;;;;;;9.86;58.87;102612.50;5189514;28;20486;-56
2022/03/17 06:51:26;;;;;;;13.82;3.70;;;;;;;9.82;58.78;102611.88;5186837;28;20750;-53
2022/03/17 06:53:59;;;;;;;19.10;4.55;;;;;;;9.78;58.58;102614.78;5178949;28;20491;-56
2022/03/17 06:56:32;;;;;;;22.70;4.70;;;;;;;9.86;58.75;102630.97;5182667;28;20672;-57
2022/03/17 06:59:06;;;;;;;18.07;4.20;;;;;;;9.83;58.77;102633.81;5182678;28;20521;-54
2022/03/17 07:01:38;;;;;;;12.13;3.67;;;;;;;9.82;58.79;102632.13;5187036;28;20503;-55
2022/03/17 07:04:11;;;;;;;16.70;4.50;;;;;;;9.71;58.60;102632.81;5186267;28;20825;-54
2022/03/17 07:06:44;;;;;;;17.40;3.63;;;;;;;9.82;58.74;102650.59;5187433;28;21021;-50
2022/03/17 07:09:16;;;;;;;19.70;4.68;;;;;;;9.82;58.36;102653.25;5187040;28;20447;-50
2022/03/17 07:11:49;;;;;;;19.80;4.50;;;;;;;9.86;58.52;102666.13;5189220;28;20407;-51
2022/03/17 07:14:22;;;;;;;20.42;4.80;;;;;;;9.89;58.43;102665.09;5188910;28;20500;-54
2022/03/17 07:16:55;;;;;;;30.67;5.05;;;;;;;9.96;58.25;102674.28;5189908;28;20478;-54
2022/03/17 07:19:29;;;;;;;24.85;5.07;;;;;;;10.03;58.28;102683.47;5174526;28;20502;-53
2022/03/17 07:22:02;;;;;;;19.42;4.80;;;;;;;10.05;57.99;102678.97;5186793;28;20443;-54
2022/03/17 07:24:35;;;;;;;23.52;4.90;;;;;;;10.05;58.08;102678.97;5186329;28;20434;-54
2022/03/17 07:27:07;;;;;;;24.27;5.45;;;;;;;10.14;57.97;102688.91;5181098;28;20434;-55
2022/03/17 07:29:41;;;;;;;23.88;5.15;;;;;;;10.14;57.91;102680.16;5186245;28;20844;-52
2022/03/17 07:32:14;;;;;;;24.30;5.10;;;;;;;10.18;57.93;102701.91;5187815;28;20494;-54
2022/03/17 07:34:47;;;;;;;15.50;4.25;;;;;;;10.01;57.93;102674.84;5184484;28;20431;-55
2022/03/17 07:37:19;;;;;;;20.92;5.22;;;;;;;10.18;57.89;102712.47;5185076;28;20976;-55
2022/03/17 07:39:52;;;;;;;19.30;4.70;;;;;;;10.22;57.75;102729.78;5185637;28;20399;-54
2022/03/17 07:42:24;;;;;;;15.60;4.57;;;;;;;10.12;57.77;102711.06;5186457;28;20422;-53
2022/03/17 07:44:58;;;;;;;22.55;4.72;;;;;;;10.06;57.79;102708.84;5188771;28;20432;-54
2022/03/17 07:47:32;;;;;;;21.25;4.20;;;;;;;10.14;57.78;102731.16;5185221;28;20447;-57
2022/03/17 07:50:05;;;;;;;18.00;4.00;;;;;;;10.08;57.84;102733.34;5188861;28;20517;-59
2022/03/17 07:52:38;;;;;;;21.27;4.57;;;;;;;10.09;57.72;102756.16;5188615;28;20913;-53
2022/03/17 07:55:11;;;;;;;15.97;4.43;;;;;;;9.86;57.58;102718.91;5187774;28;20411;-51
2022/03/17 07:57:44;;;;;;;14.05;3.55;;;;;;;10.11;57.81;102765.69;5187513;28;20497;-54
2022/03/17 08:00:18;;;;;;;19.80;4.25;;;;;;;10.10;57.66;102764.00;5188451;28;20581;-52
2022/03/17 08:02:50;;;;;;;16.10;3.63;;;;;;;10.16;57.83;102774.16;5187797;28;20489;-54
2022/03/17 08:05:23;;;;;;;13.98;3.70;;;;;;;10.22;57.72;102782.59;5187335;28;20808;-54
2022/03/17 08:07:56;;;;;;;23.03;4.37;;;;;;;10.29;57.42;102781.31;5183697;28;20625;-54
2022/03/17 08:10:29;;;;;;;12.75;3.58;;;;;;;10.38;57.37;102786.00;5188640;28;20430;-53
2022/03/17 08:13:02;;;;;;;12.70;3.17;;;;;;;10.57;57.24;102789.09;5186368;28;20891;-53
2022/03/17 08:15:36;;;;;;;13.00;3.65;;;;;;;10.73;57.15;102796.84;5176857;28;20415;-53
2022/03/17 08:18:09;;;;;;;8.02;3.10;;;;;;;10.80;56.72;102799.94;5188967;28;20890;-55
2022/03/17 08:20:43;;;;;;;11.60;2.88;;;;;;;10.87;56.87;102801.22;5186788;28;20419;-53
2022/03/17 08:23:21;;;;;;;13.00;3.13;;;;;;;11.00;56.88;102809.16;5186022;28;20426;-55
2022/03/17 08:25:53;;;;;;;11.07;3.30;;;;;;;11.06;56.76;102821.97;5181309;28;20495;-52
2022/03/17 08:28:26;;;;;;;15.80;3.77;;;;;;;11.12;56.71;102818.03;5182875;28;20418;-56
2022/03/17 08:31:00;;;;;;;13.65;3.60;;;;;;;11.20;56.52;102831.59;5183782;28;20520;-57
2022/03/17 08:33:34;;;;;;;12.00;2.70;;;;;;;11.21;56.43;102826.22;5179858;28;20493;-53
2022/03/17 08:36:07;;;;;;;10.45;2.80;;;;;;;11.10;56.45;102834.03;5183145;28;20441;-52
2022/03/17 08:38:39;;;;;;;14.10;3.15;;;;;;;11.13;56.56;102848.84;5183850;28;20477;-55
2022/03/17 08:41:12;;;;;;;13.70;3.17;;;;;;;11.16;56.39;102838.91;5186031;28;20820;-54
2022/03/17 08:43:44;;;;;;;10.82;2.80;;;;;;;11.39;56.17;102860.28;5186677;28;20775;-58
2022/03/17 08:49:21;;;;;;;18.40;3.20;;;;;;;11.71;55.78;102868.66;5181394;28;20528;-55
2022/03/17 08:51:56;;;;;;;10.57;2.88;;;;;;;11.99;55.37;102879.00;5185857;28;20857;-54
2022/03/17 08:54:35;;;;;;;16.17;3.10;;;;;;;12.28;55.04;102881.34;5186274;28;20778;-54
2022/03/17 08:57:07;;;;;;;9.52;2.15;;;;;;;12.89;54.30;102890.09;5184761;28;20407;-54
2022/03/17 08:59:40;;;;;;;10.32;2.78;;;;;;;13.24;53.88;102875.97;5183088;28;20439;-52
2022/03/17 09:02:14;;;;;;;12.80;2.85;;;;;;;14.23;52.91;102880.59;5188121;28;20981;-56
2022/03/17 09:04:48;;;;;;;9.63;2.40;;;;;;;14.99;52.13;102897.44;5186749;28;20505;-56
2022/03/17 09:07:20;;;;;;;6.88;2.22;;;;;;;15.41;51.71;102893.91;5187303;28;20420;-51
2022/03/17 09:09:53;;;;;;;9.73;2.00;;;;;;;16.03;51.23;102906.28;5184083;28;20840;-55
2022/03/17 09:12:25;;;;;;;8.40;1.95;;;;;;;16.41;50.92;102914.53;5181199;28;20418;-61
2022/03/17 09:14:58;;;;;;;7.63;2.25;;;;;;;16.51;50.85;102910.91;5181392;28;20487;-57
2022/03/17 09:17:32;;;;;;;9.10;2.10;;;;;;;16.43;51.12;102937.41;5178505;28;20488;-59
2022/03/17 09:20:08;;;;;;;7.60;2.22;;;;;;;16.68;51.12;102930.72;5185446;28;20521;-55
2022/03/17 09:22:41;;;;;;;6.80;2.20;;;;;;;16.89;50.94;102937.78;5185420;28;20773;-54
2022/03/17 09:25:14;;;;;;;12.27;2.40;;;;;;;16.91;51.07;102934.00;5175913;28;20429;-57
2022/03/17 09:27:46;;;;;;;7.38;2.35;;;;;;;16.89;51.25;102940.47;5180710;28;20772;-62
2022/03/17 09:30:19;;;;;;;6.60;1.80;;;;;;;16.80;51.28;102931.47;5181349;28;20438;-53
2022/03/17 09:32:54;;;;;;;7.55;2.25;;;;;;;16.70;51.59;102946.59;5183290;28;20414;-55
2022/03/17 09:35:27;;;;;;;8.73;2.17;;;;;;;16.51;51.89;102958.91;5186463;28;20413;-54
2022/03/17 09:37:59;;;;;;;10.10;2.63;;;;;;;16.39;52.18;102949.34;5171161;28;20494;-52
2022/03/17 09:40:32;;;;;;;11.38;2.42;;;;;;;16.20;52.21;102968.78;5182419;28;20406;-56
2022/03/17 09:43:28;;;;;;;8.93;1.92;;;;;;;15.77;52.68;102969.03;5186376;28;20477;-55
2022/03/17 09:46:01;;;;;;;8.43;2.63;;;;;;;15.47;52.76;102981.25;5184026;28;20433;-57
2022/03/17 09:48:35;;;;;;;8.48;2.85;;;;;;;15.25;52.67;102990.22;5186136;28;20448;-54
2022/03/17 09:51:07;;;;;;;11.43;2.50;;;;;;;15.10;52.80;102981.69;5186394;28;20472;-55
2022/03/17 09:53:40;;;;;;;6.25;2.25;;;;;;;14.88;52.85;102982.59;5187293;28;20735;-55
2022/03/17 09:56:12;;;;;;;9.57;2.72;;;;;;;14.70;52.54;102995.59;5186438;28;20447;-54
2022/03/17 09:58:47;;;;;;;6.55;2.25;;;;;;;14.59;52.56;102985.00;5186131;28;20457;-54
2022/03/17 10:01:22;;;;;;;9.05;2.45;;;;;;;14.53;52.37;102998.78;5182805;28;20419;-55
2022/03/17 10:04:00;;;;;;;14.85;3.47;;;;;;;14.42;52.12;102993.44;5186805;28;20490;-55
2022/03/17 10:06:33;;;;;;;10.13;3.50;;;;;;;14.43;52.09;103008.41;5187182;28;20489;-55
2022/03/17 10:09:05;;;;;;;13.23;3.00;;;;;;;14.41;51.71;103003.22;5189745;28;20443;-54
2022/03/17 10:11:38;;;;;;;14.77;3.63;;;;;;;14.38;51.50;103022.06;5187395;28;20473;-54
2022/03/17 10:14:10;;;;;;;22.48;4.28;;;;;;;14.35;51.30;103016.16;5188043;28;20848;-54
2022/03/17 10:16:43;;;;;;;12.32;3.95;;;;;;;14.45;50.96;103030.41;5190208;28;20518;-58
2022/03/17 10:19:17;;;;;;;14.85;4.18;;;;;;;14.44;50.94;103034.03;5188665;28;20508;-54
2022/03/17 10:21:49;;;;;;;9.20;3.13;;;;;;;14.43;50.74;103041.19;5187599;28;20852;-55
2022/03/17 10:24:22;;;;;;;14.27;3.53;;;;;;;14.34;50.57;103036.59;5189186;28;20415;-58
2022/03/17 10:26:57;;;;;;;11.38;3.30;;;;;;;14.32;50.54;103037.66;5190226;28;20423;-56
2022/03/17 10:29:29;;;;;;;21.42;5.63;;;;;;;14.39;50.30;103065.44;5189906;28;20419;-58
2022/03/17 10:32:05;;;;;;;18.98;4.57;;;;;;;14.41;50.19;103074.16;5167327;28;20426;-55
2022/03/17 10:34:55;;;;;;;13.50;3.95;;;;;;;14.45;50.03;103075.59;5188095;28;20438;-57
2022/03/17 10:37:30;;;;;;;14.68;3.95;;;;;;;14.48;49.93;103088.66;5185059;28;20502;-57
2022/03/17 10:40:10;;;;;;;11.63;3.93;;;;;;;14.47;49.77;103084.31;5174271;28;20415;-55
2022/03/17 10:42:43;;;;;;;16.35;4.55;;;;;;;14.30;49.57;103078.47;5183802;28;20501;-57
2022/03/17 10:45:17;;;;;;;13.10;3.67;;;;;;;14.61;49.41;103108.03;5186158;28;20498;-58
2022/03/17 10:47:50;;;;;;;15.82;4.13;;;;;;;14.61;49.35;103121.31;5187730;28;20519;-55
2022/03/17 10:50:26;;;;;;;11.10;3.70;;;;;;;14.61;49.27;103115.16;5186686;28;20871;-56
2022/03/17 10:53:01;;;;;;;16.85;4.05;;;;;;;14.53;48.97;103108.63;5186033;28;20438;-56
2022/03/17 10:55:36;;;;;;;15.87;4.17;;;;;;;14.50;49.16;103115.97;5183058;28;20770;-55
2022/03/17 10:58:18;;;;;;;21.57;4.63;;;;;;;14.53;49.24;103126.41;5187431;28;20415;-53
2022/03/17 11:00:52;;;;;;;14.00;3.60;;;;;;;14.52;48.88;103138.00;5187880;28;20423;-55
2022/03/17 11:03:25;;;;;;;17.50;4.68;;;;;;;14.38;48.95;103148.84;5187321;28;20415;-53
2022/03/17 11:05:59;;;;;;;11.70;3.75;;;;;;;14.28;49.10;103152.19;5187648;28;20508;-57
2022/03/17 11:08:33;;;;;;;19.40;3.90;;;;;;;14.20;49.09;103157.25;5185832;28;20911;-56
2022/03/17 11:11:10;;;;;;;11.98;3.05;;;;;;;14.18;48.90;103164.47;5186379;28;20417;-56
2022/03/17 11:13:44;;;;;;;8.88;3.00;;;;;;;14.24;48.89;103158.69;5188486;28;20546;-56
2022/03/17 11:16:18;;;;;;;14.68;3.75;;;;;;;14.13;48.83;103156.03;5186674;28;20496;-56
2022/03/17 11:18:51;;;;;;;14.10;3.50;;;;;;;14.16;48.72;103166.41;5187215;28;20434;-55
2022/03/17 11:21:31;;;;;;;20.30;4.00;;;;;;;14.22;48.57;103176.59;5175356;28;20423;-55
2022/03/17 11:24:05;;;;;;;13.48;4.10;;;;;;;14.18;48.61;103175.09;5176223;28;20762;-55
2022/03/17 11:26:44;;;;;;;14.60;3.85;;;;;;;14.07;48.49;103183.91;5181650;28;20551;-61
2022/03/17 11:29:21;;;;;;;14.18;3.97;;;;;;;14.06;48.55;103178.72;5186933;28;20423;-54
2022/03/17 11:32:00;;;;;;;18.98;4.32;;;;;;;14.14;48.41;103192.25;5183604;28;20410;-52
2022/03/17 11:34:47;;;;;;;16.65;3.75;;;;;;;14.18;48.31;103196.38;5183732;28;20430;-56
2022/03/17 11:37:33;;;;;;;13.88;3.15;;;;;;;14.25;48.34;103196.78;5185001;28;20419;-57
2022/03/17 11:40:13;;;;;;;15.43;3.88;;;;;;;14.23;48.28;103199.53;5182829;28;20419;-57
2022/03/17 11:42:52;;;;;;;16.05;3.40;;;;;;;14.17;48.27;103200.00;5187455;28;20423;-58
2022/03/17 11:45:41;;;;;;;18.38;4.70;;;;;;;14.21;48.29;103201.44;5188098;28;20469;-58
2022/03/17 11:48:15;;;;;;;17.15;4.10;;;;;;;14.23;48.10;103212.81;5186017;28;20772;-55
2022/03/17 11:50:50;;;;;;;14.17;3.67;;;;;;;14.23;48.10;103202.19;5187264;28;20437;-51
2022/03/17 11:53:38;;;;;;;17.55;4.45;;;;;;;14.39;47.93;103219.63;5186841;28;20407;-53
2022/03/17 11:56:36;;;;;;;13.30;2.78;;;;;;;14.42;47.76;103212.28;5183892;28;20422;-55
2022/03/17 11:59:09;;;;;;;17.65;3.90;;;;;;;14.42;47.82;103212.28;5173872;28;20452;-54
2022/03/17 12:01:44;;;;;;;13.10;3.45;;;;;;;14.47;47.71;103225.22;5184655;28;20956;-53